createdAt,value
2022-12-31T00:01:18.733Z,99148.00
2022-12-31T00:03:47.248Z,99145.00
2022-12-31T00:06:20.885Z,99154.00
2022-12-31T00:08:49.380Z,99144.00
2022-12-31T00:11:17.361Z,99145.00
2022-12-31T00:13:46.811Z,99155.00
2022-12-31T00:16:19.850Z,99164.00
2022-12-31T00:18:51.377Z,99170.00
2022-12-31T00:21:19.890Z,99167.00
2022-12-31T00:23:48.201Z,99162.00
2022-12-31T00:26:22.364Z,99165.00
2022-12-31T00:28:49.927Z,99172.00
2022-12-31T00:31:21.750Z,99175.00
2022-12-31T00:33:49.429Z,99183.00
2022-12-31T00:36:27.479Z,99181.00
2022-12-31T00:38:58.129Z,99184.00
2022-12-31T00:41:27.688Z,99182.00
2022-12-31T00:43:56.291Z,99180.00
2022-12-31T00:46:25.382Z,99187.00
2022-12-31T00:48:54.026Z,99191.00
2022-12-31T00:51:24.503Z,99187.00
2022-12-31T00:53:52.047Z,99183.00
2022-12-31T00:56:28.069Z,99180.00
2022-12-31T00:58:56.013Z,99187.00
2022-12-31T01:01:27.982Z,99182.00
2022-12-31T01:04:02.304Z,99177.00
2022-12-31T01:06:30.228Z,99174.00
2022-12-31T01:08:57.935Z,99173.00
2022-12-31T01:11:29.635Z,99184.00
2022-12-31T01:14:04.418Z,99187.00
2022-12-31T01:16:51.035Z,99191.00
2022-12-31T01:19:22.873Z,99189.00
2022-12-31T01:21:51.640Z,99201.00
2022-12-31T01:24:19.456Z,99207.00
2022-12-31T01:26:47.520Z,99200.00
2022-12-31T01:29:17.072Z,99208.00
2022-12-31T01:31:44.722Z,99214.00
2022-12-31T01:34:12.210Z,99217.00
2022-12-31T01:36:40.034Z,99225.00
2022-12-31T01:39:09.496Z,99223.00
2022-12-31T01:41:44.344Z,99238.00
2022-12-31T01:44:11.667Z,99236.00
2022-12-31T01:46:52.420Z,99238.00
2022-12-31T01:49:26.842Z,99222.00
2022-12-31T01:52:04.785Z,99226.00
2022-12-31T01:54:38.584Z,99220.00
2022-12-31T01:57:08.797Z,99204.00
2022-12-31T01:59:37.211Z,99204.00
2022-12-31T02:02:06.265Z,99202.00
2022-12-31T02:04:34.076Z,99209.00
2022-12-31T02:07:10.062Z,99213.00
2022-12-31T02:09:40.641Z,99211.00
2022-12-31T02:12:09.849Z,99222.00
2022-12-31T02:14:48.861Z,99219.00
2022-12-31T02:17:58.683Z,99207.00
2022-12-31T02:21:06.350Z,99215.00
2022-12-31T02:24:02.507Z,99211.00
2022-12-31T02:26:55.937Z,99205.00
2022-12-31T02:30:23.630Z,99209.00
2022-12-31T02:32:55.950Z,99190.00
2022-12-31T02:35:30.666Z,99186.00
2022-12-31T02:38:05.918Z,99191.00
2022-12-31T02:40:36.007Z,99188.00
2022-12-31T02:43:03.809Z,99176.00
2022-12-31T02:45:41.072Z,99180.00
2022-12-31T02:48:27.745Z,99170.00
2022-12-31T02:51:09.935Z,99171.00
2022-12-31T02:53:50.503Z,99177.00
2022-12-31T02:56:29.765Z,99165.00
2022-12-31T02:59:45.039Z,99180.00
2022-12-31T03:02:16.982Z,99178.00
2022-12-31T03:04:57.506Z,99176.00
2022-12-31T03:07:29.670Z,99168.00
2022-12-31T03:09:57.301Z,99172.00
2022-12-31T03:12:48.340Z,99166.00
2022-12-31T03:15:28.915Z,99163.00
2022-12-31T03:18:39.593Z,99157.00
2022-12-31T03:21:32.397Z,99161.00
2022-12-31T03:24:18.313Z,99161.00
2022-12-31T03:26:45.757Z,99156.00
2022-12-31T03:29:13.372Z,99145.00
2022-12-31T03:31:40.986Z,99140.00
2022-12-31T03:34:08.565Z,99136.00
2022-12-31T03:36:36.094Z,99126.00
2022-12-31T03:39:03.625Z,99132.00
2022-12-31T03:41:32.830Z,99128.00
2022-12-31T03:44:00.379Z,99126.00
2022-12-31T03:46:28.029Z,99129.00
2022-12-31T03:48:55.597Z,99126.00
2022-12-31T03:51:23.277Z,99117.00
2022-12-31T03:53:50.817Z,99109.00
2022-12-31T03:56:18.157Z,99112.00
2022-12-31T03:58:45.655Z,99106.00
2022-12-31T04:01:13.317Z,99105.00
2022-12-31T04:03:40.964Z,99103.00
2022-12-31T04:06:08.535Z,99093.00
2022-12-31T04:08:35.968Z,99106.00
2022-12-31T04:11:04.761Z,99102.00
2022-12-31T04:13:32.407Z,99106.00
2022-12-31T04:16:00.180Z,99095.00
2022-12-31T04:18:27.835Z,99100.00
2022-12-31T04:20:55.829Z,99099.00
2022-12-31T04:23:23.372Z,99094.00
2022-12-31T04:25:50.751Z,99089.00
2022-12-31T04:28:18.325Z,99086.00
2022-12-31T04:30:45.912Z,99083.00
2022-12-31T04:33:13.480Z,99075.00
2022-12-31T04:35:41.092Z,99068.00
2022-12-31T04:38:08.535Z,99068.00
2022-12-31T04:40:55.981Z,99066.00
2022-12-31T04:43:24.116Z,99064.00
2022-12-31T04:45:51.719Z,99056.00
2022-12-31T04:48:20.053Z,99068.00
2022-12-31T04:50:48.072Z,99048.00
2022-12-31T04:53:15.618Z,99064.00
2022-12-31T04:55:43.056Z,99054.00
2022-12-31T04:58:10.630Z,99052.00
2022-12-31T05:00:38.313Z,99040.00
2022-12-31T05:03:05.797Z,99044.00
2022-12-31T05:05:33.138Z,99043.00
2022-12-31T05:08:01.537Z,99040.00
2022-12-31T05:10:29.715Z,99049.00
2022-12-31T05:12:57.438Z,99035.00
2022-12-31T05:15:24.832Z,99031.00
2022-12-31T05:17:52.297Z,99032.00
2022-12-31T05:20:19.691Z,99039.00
2022-12-31T05:22:47.482Z,99030.00
2022-12-31T05:25:15.711Z,99026.00
2022-12-31T05:27:43.376Z,99023.00
2022-12-31T05:30:12.093Z,99027.00
2022-12-31T05:32:41.034Z,99014.00
2022-12-31T05:35:09.408Z,99020.00
2022-12-31T05:37:36.963Z,99025.00
2022-12-31T05:40:06.468Z,99034.00
2022-12-31T05:42:34.123Z,99031.00
2022-12-31T05:45:01.607Z,99033.00
2022-12-31T05:47:29.429Z,99030.00
2022-12-31T05:49:57.218Z,99042.00
2022-12-31T05:52:24.674Z,99035.00
2022-12-31T05:54:52.863Z,99035.00
2022-12-31T05:57:20.435Z,99030.00
2022-12-31T05:59:47.848Z,99037.00
2022-12-31T06:02:15.636Z,99051.00
2022-12-31T06:04:43.287Z,99059.00
2022-12-31T06:07:10.772Z,99057.00
2022-12-31T06:09:38.392Z,99042.00
2022-12-31T06:12:06.975Z,99036.00
2022-12-31T06:14:34.889Z,99037.00
2022-12-31T06:17:02.653Z,99032.00
2022-12-31T06:19:30.307Z,99048.00
2022-12-31T06:21:57.981Z,99041.00
2022-12-31T06:24:25.536Z,99040.00
2022-12-31T06:26:52.873Z,99042.00
2022-12-31T06:29:20.336Z,99060.00
2022-12-31T06:31:50.362Z,99052.00
2022-12-31T06:34:18.874Z,99074.00
2022-12-31T06:36:46.428Z,99072.00
2022-12-31T06:39:14.224Z,99074.00
2022-12-31T06:41:41.850Z,99089.00
2022-12-31T06:44:09.385Z,99101.00
2022-12-31T06:46:37.044Z,99095.00
2022-12-31T06:49:04.540Z,99097.00
2022-12-31T06:51:31.969Z,99103.00
2022-12-31T06:53:59.491Z,99104.00
2022-12-31T06:56:34.783Z,99100.00
2022-12-31T06:59:03.548Z,99111.00
2022-12-31T07:02:09.691Z,99117.00
2022-12-31T07:05:21.671Z,99130.00
2022-12-31T07:08:17.422Z,99125.00
2022-12-31T07:11:04.655Z,99136.00
2022-12-31T07:14:15.973Z,99133.00
2022-12-31T07:17:13.901Z,99140.00
2022-12-31T07:19:44.251Z,99139.00
2022-12-31T07:22:17.423Z,99130.00
2022-12-31T07:24:46.443Z,99127.00
2022-12-31T07:27:29.663Z,99127.00
2022-12-31T07:30:14.303Z,99117.00
2022-12-31T07:33:08.387Z,99119.00
2022-12-31T07:36:01.732Z,99128.00
2022-12-31T07:38:42.994Z,99138.00
2022-12-31T07:41:22.638Z,99135.00
2022-12-31T07:44:26.107Z,99139.00
2022-12-31T07:47:24.758Z,99138.00
2022-12-31T07:49:53.291Z,99147.00
2022-12-31T07:52:21.761Z,99138.00
2022-12-31T07:54:49.572Z,99144.00
2022-12-31T07:57:20.293Z,99142.00
2022-12-31T08:00:08.564Z,99145.00
2022-12-31T08:03:09.117Z,99155.00
2022-12-31T08:05:45.388Z,99149.00
2022-12-31T08:08:37.659Z,99149.00
2022-12-31T08:11:47.951Z,99166.00
2022-12-31T08:14:16.390Z,99162.00
2022-12-31T08:16:44.450Z,99167.00
2022-12-31T08:19:27.103Z,99177.00
2022-12-31T08:22:50.504Z,99179.00
2022-12-31T08:25:28.298Z,99174.00
2022-12-31T08:28:17.148Z,99190.00
2022-12-31T08:31:08.121Z,99183.00
2022-12-31T08:34:06.203Z,99186.00
2022-12-31T08:36:50.857Z,99195.00
2022-12-31T08:39:53.641Z,99190.00
2022-12-31T08:43:06.592Z,99192.00
2022-12-31T08:45:50.309Z,99205.00
2022-12-31T08:48:42.453Z,99205.00
2022-12-31T08:51:21.561Z,99202.00
2022-12-31T08:53:49.911Z,99209.00
2022-12-31T08:56:37.800Z,99205.00
2022-12-31T08:59:24.621Z,99217.00
2022-12-31T09:02:07.610Z,99222.00
2022-12-31T09:05:20.277Z,99229.00
2022-12-31T09:08:04.846Z,99233.00
2022-12-31T09:10:46.170Z,99224.00
2022-12-31T09:13:50.135Z,99223.00
2022-12-31T09:16:32.838Z,99218.00
2022-12-31T09:19:00.425Z,99222.00
2022-12-31T09:21:28.462Z,99218.00
2022-12-31T09:23:56.336Z,99218.00
2022-12-31T09:27:01.995Z,99217.00
2022-12-31T09:30:00.025Z,99221.00
2022-12-31T09:32:45.222Z,99223.00
2022-12-31T09:35:20.513Z,99233.00
2022-12-31T09:37:57.277Z,99232.00
2022-12-31T09:40:50.837Z,99234.00
2022-12-31T09:43:57.453Z,99231.00
2022-12-31T09:47:02.048Z,99250.00
2022-12-31T09:50:22.613Z,99246.00
2022-12-31T09:53:42.080Z,99244.00
2022-12-31T09:56:49.063Z,99244.00
2022-12-31T09:59:31.048Z,99244.00
2022-12-31T10:02:44.026Z,99249.00
2022-12-31T10:05:43.031Z,99230.00
2022-12-31T10:08:42.646Z,99256.00
2022-12-31T10:11:13.228Z,99249.00
2022-12-31T10:14:25.530Z,99243.00
2022-12-31T10:17:11.260Z,99237.00
2022-12-31T10:19:52.731Z,99236.00
2022-12-31T10:22:43.705Z,99247.00
2022-12-31T10:25:39.878Z,99249.00
2022-12-31T10:28:19.814Z,99233.00
2022-12-31T10:31:30.450Z,99235.00
2022-12-31T10:34:36.602Z,99243.00
2022-12-31T10:37:16.836Z,99240.00
2022-12-31T10:40:05.173Z,99230.00
2022-12-31T10:43:00.356Z,99237.00
2022-12-31T10:46:17.691Z,99236.00
2022-12-31T10:49:20.514Z,99241.00
2022-12-31T10:52:23.075Z,99245.00
2022-12-31T10:55:18.142Z,99250.00
2022-12-31T10:58:03.958Z,99234.00
2022-12-31T11:00:53.940Z,99260.00
2022-12-31T11:04:17.082Z,99239.00
2022-12-31T11:07:17.862Z,99238.00
2022-12-31T11:10:35.221Z,99243.00
2022-12-31T11:13:54.764Z,99246.00
2022-12-31T11:16:47.185Z,99256.00
2022-12-31T11:20:28.663Z,99240.00
2022-12-31T11:23:20.885Z,99241.00
2022-12-31T11:26:22.725Z,99244.00
2022-12-31T11:29:32.940Z,99255.00
2022-12-31T11:32:37.264Z,99264.00
2022-12-31T11:35:51.182Z,99276.00
2022-12-31T11:38:43.170Z,99272.00
2022-12-31T11:41:36.029Z,99259.00
2022-12-31T11:44:30.632Z,99264.00
2022-12-31T11:47:22.499Z,99266.00
2022-12-31T11:50:24.355Z,99257.00
2022-12-31T11:53:25.939Z,99263.00
2022-12-31T11:56:19.187Z,99262.00
2022-12-31T11:58:54.010Z,99269.00
2022-12-31T12:01:52.750Z,99269.00
2022-12-31T12:04:20.411Z,99275.00
2022-12-31T12:06:48.666Z,99270.00
2022-12-31T12:09:27.232Z,99272.00
2022-12-31T12:12:05.140Z,99289.00
2022-12-31T12:14:45.223Z,99280.00
2022-12-31T12:17:31.990Z,99293.00
2022-12-31T12:20:19.146Z,99289.00
2022-12-31T12:22:56.482Z,99286.00
2022-12-31T12:25:36.274Z,99287.00
2022-12-31T12:28:19.222Z,99304.00
2022-12-31T12:31:00.728Z,99309.00
2022-12-31T12:33:31.589Z,99310.00
2022-12-31T12:36:13.515Z,99321.00
2022-12-31T12:38:42.855Z,99322.00
2022-12-31T12:41:26.817Z,99321.00
2022-12-31T12:44:13.801Z,99318.00
2022-12-31T12:46:49.921Z,99316.00
2022-12-31T12:49:40.212Z,99314.00
2022-12-31T12:52:41.769Z,99326.00
2022-12-31T12:55:35.949Z,99323.00
2022-12-31T12:58:46.486Z,99327.00
2022-12-31T13:01:43.746Z,99324.00
2022-12-31T13:04:47.140Z,99327.00
2022-12-31T13:07:49.077Z,99343.00
2022-12-31T13:10:30.664Z,99324.00
2022-12-31T13:13:24.946Z,99333.00
2022-12-31T13:16:05.559Z,99350.00
2022-12-31T13:19:00.559Z,99344.00
2022-12-31T13:21:55.546Z,99344.00
2022-12-31T13:24:44.288Z,99345.00
2022-12-31T13:27:38.703Z,99343.00
2022-12-31T13:30:33.192Z,99339.00
2022-12-31T13:33:22.736Z,99338.00
2022-12-31T13:36:21.606Z,99344.00
2022-12-31T13:38:55.998Z,99337.00
2022-12-31T13:41:41.735Z,99351.00
2022-12-31T13:44:29.768Z,99334.00
2022-12-31T13:47:15.446Z,99343.00
2022-12-31T13:50:12.529Z,99349.00
2022-12-31T13:53:03.687Z,99358.00
2022-12-31T13:55:56.641Z,99354.00
2022-12-31T13:58:41.391Z,99358.00
2022-12-31T14:01:33.617Z,99358.00
2022-12-31T14:04:21.877Z,99374.00
2022-12-31T14:07:19.640Z,99374.00
2022-12-31T14:09:47.251Z,99367.00
2022-12-31T14:12:37.116Z,99370.00
2022-12-31T14:15:42.446Z,99375.00
2022-12-31T14:18:36.628Z,99379.00
2022-12-31T14:21:28.848Z,99373.00
2022-12-31T14:24:14.228Z,99373.00
2022-12-31T14:26:44.665Z,99369.00
2022-12-31T14:29:12.306Z,99364.00
2022-12-31T14:31:48.830Z,99360.00
2022-12-31T14:34:35.617Z,99360.00
2022-12-31T14:37:28.205Z,99373.00
2022-12-31T14:40:20.330Z,99364.00
2022-12-31T14:43:21.794Z,99369.00
2022-12-31T14:46:10.663Z,99364.00
2022-12-31T14:49:28.754Z,99372.00
2022-12-31T14:51:56.213Z,99382.00
2022-12-31T14:54:37.483Z,99388.00
2022-12-31T14:57:24.843Z,99401.00
2022-12-31T14:59:58.778Z,99384.00
2022-12-31T15:02:35.580Z,99391.00
2022-12-31T15:05:19.492Z,99390.00
2022-12-31T15:08:02.006Z,99388.00
2022-12-31T15:10:44.499Z,99395.00
2022-12-31T15:13:57.672Z,99409.00
2022-12-31T15:16:55.791Z,99414.00
2022-12-31T15:20:16.715Z,99409.00
2022-12-31T15:22:51.536Z,99416.00
2022-12-31T15:25:40.014Z,99425.00
2022-12-31T15:28:41.185Z,99426.00
2022-12-31T15:31:17.502Z,99435.00
2022-12-31T15:33:56.931Z,99421.00
2022-12-31T15:36:31.289Z,99421.00
2022-12-31T15:39:10.929Z,99419.00
2022-12-31T15:42:03.152Z,99431.00
2022-12-31T15:44:49.407Z,99419.00
2022-12-31T15:47:42.363Z,99419.00
2022-12-31T15:50:19.374Z,99418.00
2022-12-31T15:52:58.789Z,99418.00
2022-12-31T15:55:48.932Z,99423.00
2022-12-31T15:58:26.684Z,99432.00
2022-12-31T16:01:20.953Z,99432.00
2022-12-31T16:04:19.369Z,99439.00
2022-12-31T16:06:50.982Z,99445.00
2022-12-31T16:09:29.045Z,99452.00
2022-12-31T16:11:58.855Z,99431.00
2022-12-31T16:14:43.893Z,99443.00
2022-12-31T16:17:32.454Z,99440.00
2022-12-31T16:20:02.484Z,99438.00
2022-12-31T16:22:38.248Z,99444.00
2022-12-31T16:25:30.300Z,99455.00
2022-12-31T16:27:56.573Z,99443.00
2022-12-31T16:30:32.747Z,99440.00
2022-12-31T16:33:06.241Z,99440.00
2022-12-31T16:35:36.906Z,99430.00
2022-12-31T16:38:17.893Z,99433.00
2022-12-31T16:41:24.574Z,99443.00
2022-12-31T16:43:52.342Z,99450.00
2022-12-31T16:46:30.042Z,99462.00
2022-12-31T16:49:16.362Z,99455.00
2022-12-31T16:51:43.969Z,99451.00
2022-12-31T16:54:26.284Z,99439.00
2022-12-31T16:56:54.044Z,99444.00
2022-12-31T16:59:40.718Z,99445.00
2022-12-31T17:02:19.745Z,99449.00
2022-12-31T17:04:55.756Z,99449.00
2022-12-31T17:07:33.009Z,99456.00
2022-12-31T17:10:23.746Z,99449.00
2022-12-31T17:15:47.022Z,99454.00
2022-12-31T17:18:36.628Z,99462.00
2022-12-31T17:21:10.185Z,99459.00
2022-12-31T17:23:40.122Z,99457.00
2022-12-31T17:26:23.851Z,99454.00
2022-12-31T17:28:54.306Z,99447.00
2022-12-31T17:31:35.706Z,99462.00
2022-12-31T17:34:24.225Z,99464.00
2022-12-31T17:37:03.707Z,99471.00
2022-12-31T17:39:53.659Z,99468.00
2022-12-31T17:42:40.658Z,99470.00
2022-12-31T17:45:18.766Z,99471.00
2022-12-31T17:47:51.391Z,99472.00
2022-12-31T17:50:25.979Z,99470.00
2022-12-31T17:53:16.956Z,99489.00
2022-12-31T17:55:48.795Z,99475.00
2022-12-31T17:58:34.980Z,99487.00
2022-12-31T18:01:07.879Z,99473.00
2022-12-31T18:03:35.943Z,99474.00
2022-12-31T18:06:05.600Z,99482.00
2022-12-31T18:08:33.213Z,99480.00
2022-12-31T18:11:00.655Z,99484.00
2022-12-31T18:13:28.828Z,99477.00
2022-12-31T18:15:56.424Z,99472.00
2022-12-31T18:18:29.493Z,99476.00
2022-12-31T18:21:04.485Z,99483.00
2022-12-31T18:23:37.149Z,99489.00
2022-12-31T18:26:04.779Z,99487.00
2022-12-31T18:28:32.513Z,99476.00
2022-12-31T18:31:00.291Z,99480.00
2022-12-31T18:33:28.825Z,99477.00
2022-12-31T18:36:11.664Z,99470.00
2022-12-31T18:38:39.727Z,99461.00
2022-12-31T18:41:15.920Z,99456.00
2022-12-31T18:43:43.633Z,99456.00
2022-12-31T18:46:16.942Z,99460.00
2022-12-31T18:48:45.520Z,99458.00
2022-12-31T18:51:20.113Z,99447.00
2022-12-31T18:53:47.943Z,99460.00
2022-12-31T18:56:19.166Z,99461.00
2022-12-31T18:58:48.269Z,99453.00
2022-12-31T19:01:29.609Z,99451.00
2022-12-31T19:04:13.946Z,99452.00
2022-12-31T19:06:42.776Z,99449.00
2022-12-31T19:09:42.885Z,99443.00
2022-12-31T19:12:00.686Z,99440.00
2022-12-31T19:14:29.094Z,99447.00
2022-12-31T19:19:26.444Z,99458.00
2022-12-31T19:21:53.920Z,99443.00
2022-12-31T19:24:26.788Z,99442.00
2022-12-31T19:26:55.889Z,99452.00
2022-12-31T19:29:27.129Z,99460.00
2022-12-31T19:31:55.296Z,99447.00
2022-12-31T19:34:23.883Z,99459.00
2022-12-31T19:36:51.240Z,99453.00
2022-12-31T19:39:21.474Z,99453.00
2022-12-31T19:41:58.177Z,99456.00
2022-12-31T19:44:26.755Z,99461.00
2022-12-31T19:46:54.153Z,99453.00
2022-12-31T19:49:21.718Z,99453.00
2022-12-31T19:51:49.238Z,99442.00
2022-12-31T19:54:16.746Z,99443.00
2022-12-31T19:56:44.297Z,99450.00
2022-12-31T19:59:12.364Z,99432.00
2022-12-31T20:01:45.911Z,99439.00
2022-12-31T20:04:13.992Z,99441.00
2022-12-31T20:06:41.647Z,99439.00
2022-12-31T20:09:11.112Z,99451.00
2022-12-31T20:11:38.780Z,99455.00
2022-12-31T20:14:06.236Z,99461.00
2022-12-31T20:16:34.243Z,99469.00
2022-12-31T20:19:02.235Z,99468.00
2022-12-31T20:21:35.301Z,99472.00
2022-12-31T20:24:06.197Z,99477.00
2022-12-31T20:26:33.922Z,99476.00
2022-12-31T20:29:01.494Z,99480.00
2022-12-31T20:31:29.040Z,99487.00
2022-12-31T20:33:56.828Z,99494.00
2022-12-31T20:36:25.900Z,99495.00
2022-12-31T20:38:53.472Z,99482.00
2022-12-31T20:41:23.361Z,99492.00
2022-12-31T20:43:51.602Z,99493.00
2022-12-31T20:46:25.777Z,99495.00
2022-12-31T20:48:56.958Z,99486.00
2022-12-31T20:51:26.722Z,99487.00
2022-12-31T20:54:01.397Z,99477.00
2022-12-31T20:56:32.847Z,99480.00
2022-12-31T20:59:01.100Z,99469.00
2022-12-31T21:01:41.751Z,99487.00
2022-12-31T21:04:16.794Z,99477.00
2022-12-31T21:06:44.460Z,99495.00
2022-12-31T21:09:14.121Z,99498.00
2022-12-31T21:12:00.257Z,99517.00
2022-12-31T21:14:27.796Z,99523.00
2022-12-31T21:16:55.370Z,99515.00
2022-12-31T21:19:22.839Z,99514.00
2022-12-31T21:21:50.187Z,99517.00
2022-12-31T21:24:23.505Z,99530.00
2022-12-31T21:26:52.338Z,99531.00
2022-12-31T21:29:20.019Z,99541.00
2022-12-31T21:31:47.484Z,99530.00
2022-12-31T21:34:14.969Z,99532.00
2022-12-31T21:36:42.847Z,99531.00
2022-12-31T21:39:10.336Z,99533.00
2022-12-31T21:41:52.661Z,99541.00
2022-12-31T21:44:25.998Z,99539.00
2022-12-31T21:47:40.908Z,99544.00
2022-12-31T21:50:09.169Z,99544.00
2022-12-31T21:52:36.856Z,99539.00
2022-12-31T21:55:25.196Z,99537.00
2022-12-31T21:58:25.140Z,99538.00
2022-12-31T22:00:59.490Z,99546.00
2022-12-31T22:03:31.926Z,99544.00
2022-12-31T22:06:16.433Z,99542.00
2022-12-31T22:08:49.165Z,99537.00
2022-12-31T22:11:19.628Z,99545.00
2022-12-31T22:13:48.199Z,99560.00
2022-12-31T22:16:17.401Z,99537.00
2022-12-31T22:18:44.899Z,99545.00
2022-12-31T22:21:20.030Z,99546.00
2022-12-31T22:23:54.548Z,99543.00
2022-12-31T22:26:29.125Z,99556.00
2022-12-31T22:29:00.035Z,99556.00
2022-12-31T22:31:30.219Z,99550.00
2022-12-31T22:33:59.699Z,99552.00
2022-12-31T22:36:27.481Z,99562.00
2022-12-31T22:38:58.481Z,99565.00
2022-12-31T22:41:28.474Z,99573.00
2022-12-31T22:44:05.834Z,99578.00
2022-12-31T22:46:34.841Z,99589.00
2022-12-31T22:49:04.610Z,99595.00
2022-12-31T22:51:56.902Z,99597.00
2022-12-31T22:54:22.999Z,99595.00
2022-12-31T22:56:50.695Z,99610.00
2022-12-31T22:59:18.323Z,99614.00
2022-12-31T23:01:45.999Z,99613.00
2022-12-31T23:04:13.423Z,99622.00
2022-12-31T23:06:43.890Z,99624.00
2022-12-31T23:09:35.176Z,99624.00
2022-12-31T23:12:07.908Z,99635.00
2022-12-31T23:14:53.931Z,99625.00
2022-12-31T23:17:46.923Z,99625.00
2022-12-31T23:20:36.995Z,99640.00
2022-12-31T23:23:07.923Z,99639.00
2022-12-31T23:25:46.131Z,99640.00
2022-12-31T23:28:25.526Z,99639.00
2022-12-31T23:30:54.034Z,99643.00
2022-12-31T23:33:25.096Z,99649.00
2022-12-31T23:36:04.314Z,99650.00
2022-12-31T23:38:31.787Z,99647.00
2022-12-31T23:40:59.208Z,99645.00
2022-12-31T23:43:26.688Z,99647.00
2022-12-31T23:45:54.216Z,99639.00
2022-12-31T23:48:21.595Z,99646.00
2022-12-31T23:50:53.869Z,99637.00
2022-12-31T23:53:25.137Z,99646.00
2022-12-31T23:55:54.119Z,99639.00
2022-12-31T23:58:22.470Z,99653.00
